Portada
METAR-TAF:

METAR-TAF

Aeroports :

Iranshahr, Iran

latitud: 27-12N, longitud: 060-42E, altitud: 591 m

Observació

L'informe es va fer fa 1 hora i 6 minuts, a les 10:00 UTC
Vent 4 kt del Oest
Temperatura 24°C
Humitat 31%
Pressió 1018 hPa
Visibilitat 10 km o més
sense núvols per sota de 1500 mi sense presència de cumulonimbus.

METAR: OIZI 151000Z 28004KT CAVOK 24/06 Q1018

Hora: 14:36 (11:06 UTC)


TAF: manca

Observacions i pronòstics meteorològics de més de 4000 aeroports (METAR i TAF).

Les estacions disponibles són els punts grocs i vermells al mapa.

Posi el ratolí al punt desitjat per veure el nom de l'estació.

Feu clic per veure les observacions i els pronòstics meteorològics.

Per canviar el mapa: feu clic els botons verds amb una creu de color negre per apropar; al botó verd amb un guió per allunyar la imatge; o en les fletxes verdes per a mapes adjacents.


METAR-TAF: